Time;durP1;ratioP1;P1;durP2;ratioP2;P2;SDS_P1;SDS_P2;PMS_P1;PMS_P2;Temp;Humidity;BMP_temperature;BMP_pressure;BME280_temperature;BME280_humidity;BME280_pressure;Samples;Min_cycle;Max_cycle;Signal;HPM_P1;HPM_P2
2021/06/27 06:28:26;;;;;;;4.05;3.67;;;;;;;22.73;73.50;100577.66;5066473;27;102597;-85
2021/06/27 06:31:07;;;;;;;3.75;3.45;;;;;;;22.76;73.42;100572.19;5075318;27;102733;-86
2021/06/27 06:33:34;;;;;;;3.47;3.28;;;;;;;22.78;73.38;100567.06;5085211;27;102767;-85
2021/06/27 06:36:01;;;;;;;4.03;3.72;;;;;;;22.82;73.25;100581.03;5079867;27;102683;-86
2021/06/27 06:38:27;;;;;;;4.25;3.85;;;;;;;22.83;73.30;100567.97;5086984;27;102518;-85
2021/06/27 06:40:54;;;;;;;4.00;3.58;;;;;;;22.84;73.00;100566.81;5084264;27;102384;-86
2021/06/27 06:43:20;;;;;;;4.32;3.92;;;;;;;22.85;73.15;100572.00;5078562;27;103913;-86
2021/06/27 06:45:48;;;;;;;4.15;3.75;;;;;;;22.87;72.95;100568.88;5083846;27;102147;-85
2021/06/27 06:48:16;;;;;;;3.42;3.20;;;;;;;22.88;73.18;100576.03;5077294;27;102365;-85
2021/06/27 06:50:43;;;;;;;4.05;3.58;;;;;;;22.89;72.83;100572.09;5080283;27;102557;-85
2021/06/27 06:53:09;;;;;;;4.15;3.75;;;;;;;22.90;72.74;100573.69;5058506;27;102676;-86
2021/06/27 06:55:36;;;;;;;4.15;3.85;;;;;;;22.89;73.11;100567.34;5082987;27;102206;-86
2021/06/27 06:58:04;;;;;;;4.20;3.80;;;;;;;22.92;73.19;100565.84;5073347;27;102781;-86
2021/06/27 07:00:31;;;;;;;3.83;3.53;;;;;;;22.91;73.03;100569.78;5080811;27;103138;-86
2021/06/27 07:03:00;;;;;;;4.55;4.15;;;;;;;22.93;72.83;100578.56;5082041;27;102907;-86
2021/06/27 07:05:26;;;;;;;3.55;3.35;;;;;;;22.93;72.94;100578.56;5081967;27;102449;-85
2021/06/27 07:07:53;;;;;;;4.13;3.83;;;;;;;22.94;72.96;100581.00;5076989;27;102231;-86
2021/06/27 07:10:39;;;;;;;4.00;3.70;;;;;;;22.94;72.75;100581.00;5080315;27;102718;-86
2021/06/27 07:13:06;;;;;;;3.50;3.30;;;;;;;22.97;72.84;100582.22;5075293;27;103798;-86
2021/06/27 07:15:33;;;;;;;3.83;3.53;;;;;;;22.97;72.92;100583.06;5072410;27;102801;-85
2021/06/27 07:18:01;;;;;;;3.63;3.33;;;;;;;22.97;72.78;100585.00;5072429;27;102570;-86
2021/06/27 07:20:42;;;;;;;4.00;3.70;;;;;;;22.99;72.68;100582.69;5069880;27;102735;-84
2021/06/27 07:23:09;;;;;;;3.72;3.42;;;;;;;22.98;72.76;100587.44;5080063;27;104943;-84
2021/06/27 07:25:36;;;;;;;4.80;3.50;;;;;;;23.01;72.63;100591.47;5072886;27;102147;-84
2021/06/27 07:28:03;;;;;;;3.78;3.47;;;;;;;23.00;72.83;100590.63;5075951;27;102599;-84
2021/06/27 07:30:30;;;;;;;3.80;3.50;;;;;;;23.01;72.58;100583.94;5059642;27;102259;-84
2021/06/27 07:32:57;;;;;;;3.85;3.55;;;;;;;23.02;72.53;100587.53;5074719;27;102337;-83
2021/06/27 07:35:25;;;;;;;4.05;3.75;;;;;;;23.03;72.53;100575.25;5078091;27;102268;-84
2021/06/27 07:37:52;;;;;;;;;;;;;;;23.03;72.67;100578.03;5070548;27;102224;-84
2021/06/27 07:40:19;;;;;;;3.65;3.35;;;;;;;23.05;72.51;100574.91;5064081;27;102620;-84
2021/06/27 07:42:46;;;;;;;3.30;3.05;;;;;;;23.05;72.63;100581.25;5060178;27;104099;-84
2021/06/27 07:45:14;;;;;;;3.47;3.25;;;;;;;23.05;72.61;100575.72;5064746;27;102638;-84
2021/06/27 07:48:00;;;;;;;3.45;3.15;;;;;;;23.06;72.48;100582.88;5058507;27;103906;-84
2021/06/27 07:50:29;;;;;;;3.30;3.10;;;;;;;23.06;72.57;100585.63;5055667;27;103312;-84
2021/06/27 07:52:55;;;;;;;3.70;3.40;;;;;;;23.05;72.42;100586.81;5054861;27;103269;-85
2021/06/27 07:55:23;;;;;;;3.38;3.08;;;;;;;23.07;72.61;100589.22;5060104;27;102591;-85
2021/06/27 07:57:50;;;;;;;3.45;3.25;;;;;;;23.07;72.50;100594.75;5040923;27;102409;-85
2021/06/27 08:00:18;;;;;;;3.50;3.20;;;;;;;23.07;72.59;100584.47;5055020;27;102596;-85
2021/06/27 08:02:45;;;;;;;3.67;3.37;;;;;;;23.08;72.33;100591.66;5063577;27;102888;-85
2021/06/27 08:05:12;;;;;;;3.25;2.97;;;;;;;23.09;72.33;100589.69;5058624;27;102440;-85
2021/06/27 08:07:41;;;;;;;3.63;3.15;;;;;;;23.09;72.56;100587.69;5046670;27;102725;-84
2021/06/27 08:10:09;;;;;;;3.33;3.08;;;;;;;23.10;72.03;100600.41;5050756;27;103117;-84
2021/06/27 08:12:36;;;;;;;3.60;3.40;;;;;;;23.10;72.44;100591.28;5054890;27;103617;-84
2021/06/27 08:15:20;;;;;;;3.47;3.20;;;;;;;23.11;72.49;100595.66;5061632;27;102667;-86
2021/06/27 08:17:48;;;;;;;3.03;2.83;;;;;;;23.10;72.53;100600.41;5065182;27;102493;-87
2021/06/27 08:20:16;;;;;;;4.50;2.97;;;;;;;23.11;72.27;100603.97;5061969;27;102134;-87
2021/06/27 08:22:47;;;;;;;3.15;2.95;;;;;;;23.11;72.02;100595.66;5038822;27;105147;-88
2021/06/27 08:25:14;;;;;;;3.00;2.80;;;;;;;23.12;72.40;100597.28;5060841;27;103768;-85
2021/06/27 08:27:41;;;;;;;3.22;2.97;;;;;;;23.12;72.22;100592.53;5056958;27;102457;-84
2021/06/27 08:30:10;;;;;;;3.33;3.10;;;;;;;23.11;72.23;100584.56;5046911;27;102626;-84
2021/06/27 08:32:37;;;;;;;3.03;2.83;;;;;;;23.12;72.37;100592.53;5063160;27;102781;-84
2021/06/27 08:35:24;;;;;;;3.50;3.20;;;;;;;23.13;72.48;100590.56;5061098;27;103151;-83
2021/06/27 08:37:52;;;;;;;3.10;2.90;;;;;;;23.12;72.34;100591.75;5050122;27;102733;-84
2021/06/27 08:40:20;;;;;;;3.40;3.20;;;;;;;23.12;72.30;100598.09;5057232;27;102458;-84
2021/06/27 08:42:47;;;;;;;3.53;3.08;;;;;;;23.13;72.47;100594.13;5062533;27;104248;-86
2021/06/27 08:45:16;;;;;;;3.47;3.05;;;;;;;23.13;72.33;100588.59;5063080;27;102576;-86
2021/06/27 08:47:45;;;;;;;3.22;3.03;;;;;;;23.13;72.62;100588.59;5062875;27;102642;-85
2021/06/27 08:50:14;;;;;;;3.10;2.90;;;;;;;23.13;72.00;100585.81;5061346;27;102863;-86
2021/06/27 08:52:43;;;;;;;3.13;2.92;;;;;;;23.12;72.37;100592.53;5061458;27;102822;-86
2021/06/27 08:55:13;;;;;;;3.17;2.88;;;;;;;23.14;72.35;100595.75;5043886;27;102466;-86
2021/06/27 08:57:40;;;;;;;3.10;2.90;;;;;;;23.13;72.21;100590.56;5064003;27;102745;-86
2021/06/27 09:00:09;;;;;;;4.05;3.17;;;;;;;23.13;72.13;100588.59;5062694;27;102686;-86
2021/06/27 09:02:36;;;;;;;2.80;2.55;;;;;;;23.12;72.27;100587.00;5066095;27;103367;-86
2021/06/27 09:05:06;;;;;;;3.13;2.92;;;;;;;23.13;72.16;100588.59;5064022;27;102535;-86
2021/06/27 09:07:34;;;;;;;3.13;2.83;;;;;;;23.12;72.29;100592.53;5059981;27;102517;-85
2021/06/27 09:10:04;;;;;;;3.38;3.08;;;;;;;23.12;72.18;100592.53;5067145;27;102251;-85
2021/06/27 09:12:49;;;;;;;3.10;2.80;;;;;;;23.12;72.53;100591.75;5062697;27;102793;-85
2021/06/27 09:15:35;;;;;;;2.92;2.72;;;;;;;23.12;72.42;100587.00;5058888;27;102334;-85
2021/06/27 09:18:05;;;;;;;3.10;2.90;;;;;;;23.12;72.22;100584.22;5066713;27;102163;-87
2021/06/27 09:20:32;;;;;;;3.55;3.28;;;;;;;23.13;72.18;100593.34;5068226;27;103121;-86
2021/06/27 09:22:59;;;;;;;2.80;2.60;;;;;;;23.14;72.37;100586.63;5065750;27;103863;-86
2021/06/27 09:25:28;;;;;;;3.25;3.00;;;;;;;23.14;71.99;100587.41;5063645;27;102567;-85
2021/06/27 09:28:06;;;;;;;2.90;2.70;;;;;;;23.15;72.17;100580.72;5061284;27;102916;-87
2021/06/27 09:30:35;;;;;;;3.28;2.97;;;;;;;23.16;72.28;100582.31;5045414;27;102822;-88
2021/06/27 09:33:04;;;;;;;3.13;2.90;;;;;;;23.16;72.21;100587.06;5066465;27;102752;-87
2021/06/27 09:35:49;;;;;;;3.60;3.30;;;;;;;23.17;72.05;100592.25;5059806;27;102274;-87
2021/06/27 09:38:42;;;;;;;3.22;3.03;;;;;;;23.16;72.23;100593.44;5057712;27;102434;-86
2021/06/27 09:41:15;;;;;;;3.20;2.97;;;;;;;23.17;72.25;100594.22;5060217;27;102777;-85
2021/06/27 09:43:51;;;;;;;2.90;2.70;;;;;;;23.17;72.50;100589.47;5051251;27;102708;-88
2021/06/27 09:46:30;;;;;;;3.50;3.20;;;;;;;23.24;72.22;100597.97;5040621;27;102611;-84
2021/06/27 09:48:58;;;;;;;3.08;2.88;;;;;;;23.23;72.23;100604.69;5067433;27;102399;-87
2021/06/27 09:51:28;;;;;;;2.83;2.63;;;;;;;23.24;72.27;100603.53;5054071;27;102850;-86
2021/06/27 09:53:56;;;;;;;2.90;2.70;;;;;;;23.23;72.02;100609.47;5058152;27;103044;-86
2021/06/27 09:56:24;;;;;;;3.40;2.95;;;;;;;23.20;72.20;100597.09;5057060;27;102640;-86
2021/06/27 09:59:02;;;;;;;3.07;2.70;;;;;;;23.19;72.22;100606.59;5058235;27;103097;-86
2021/06/27 10:01:30;;;;;;;3.40;3.10;;;;;;;23.19;72.13;100608.56;5047504;27;102414;-86
2021/06/27 10:03:58;;;;;;;3.20;3.00;;;;;;;23.18;72.36;100609.72;5058948;27;103752;-86
2021/06/27 10:06:27;;;;;;;3.08;2.78;;;;;;;23.17;72.20;100611.69;5066109;27;102616;-86
2021/06/27 10:08:55;;;;;;;3.20;3.00;;;;;;;23.17;72.21;100616.44;5061851;27;102170;-85
2021/06/27 10:11:23;;;;;;;3.67;3.00;;;;;;;23.15;nan;100619.59;5040647;27;102974;-86
2021/06/27 10:13:50;;;;;;;;;;;;;;;23.15;72.34;100614.03;5053251;27;103176;-85
2021/06/27 10:16:25;;;;;;;3.30;3.00;;;;;;;23.15;72.45;100619.59;5057668;27;102702;-86
2021/06/27 10:18:52;;;;;;;3.38;3.08;;;;;;;23.13;72.37;100621.09;5039594;22;102607;-57
2021/06/27 10:21:20;;;;;;;3.55;3.25;;;;;;;23.14;72.39;100617.16;5012660;27;102096;-57
2021/06/27 10:23:48;;;;;;;3.10;2.90;;;;;;;23.13;72.30;100616.34;5004640;28;103912;-58
2021/06/27 10:26:15;;;;;;;3.47;3.20;;;;;;;23.11;72.14;100613.13;5009109;28;102461;-58
2021/06/27 10:28:43;;;;;;;5.13;3.20;;;;;;;23.12;72.34;100620.28;5007572;28;102258;-58
2021/06/27 10:31:11;;;;;;;3.73;3.17;;;;;;;23.11;72.39;100613.13;5009445;28;102483;-58
2021/06/27 10:33:40;;;;;;;4.40;3.20;;;;;;;23.09;72.42;100618.22;5009151;28;103878;-57
2021/06/27 10:36:08;;;;;;;3.47;3.17;;;;;;;23.10;72.36;100616.25;5006573;28;102225;-57
2021/06/27 10:38:38;;;;;;;3.17;2.88;;;;;;;23.10;72.42;100616.25;5003841;28;102598;-58
2021/06/27 10:41:05;;;;;;;3.78;3.25;;;;;;;23.10;72.35;100610.72;5007299;28;102756;-63
2021/06/27 10:44:00;;;;;;;2.85;2.65;;;;;;;23.07;72.54;100612.22;5007889;28;103056;-58
2021/06/27 10:46:41;;;;;;;3.38;3.08;;;;;;;23.09;72.33;100612.69;5007670;28;102281;-57
2021/06/27 10:49:59;;;;;;;3.35;3.13;;;;;;;23.10;72.32;100616.25;5008382;28;102151;-57
2021/06/27 10:52:26;;;;;;;3.33;3.13;;;;;;;23.08;72.30;100605.53;5008056;28;102248;-57
2021/06/27 10:55:19;;;;;;;3.10;2.90;;;;;;;23.10;72.45;100616.25;5006526;28;103874;-57
2021/06/27 10:57:55;;;;;;;3.80;2.90;;;;;;;23.08;72.37;100613.84;5005493;28;102374;-58
2021/06/27 11:00:23;;;;;;;3.42;3.13;;;;;;;23.09;72.34;100609.91;4999063;28;102227;-57
2021/06/27 11:02:50;;;;;;;3.17;2.97;;;;;;;23.09;72.35;100598.00;4999176;28;102992;-57
2021/06/27 11:05:43;;;;;;;3.33;3.03;;;;;;;23.09;72.46;100606.31;5002615;28;103894;-58
2021/06/27 11:08:27;;;;;;;3.22;3.03;;;;;;;23.08;72.34;100608.31;5005318;28;103983;-57
2021/06/27 11:10:58;;;;;;;2.85;2.65;;;;;;;23.09;72.44;100609.09;5005387;28;102575;-58
2021/06/27 11:13:25;;;;;;;3.95;3.65;;;;;;;23.09;72.49;100621.00;5010263;28;102364;-58
2021/06/27 11:16:11;;;;;;;4.93;3.28;;;;;;;23.08;72.37;100624.97;5011255;28;103907;-58
2021/06/27 11:18:40;;;;;;;3.58;3.22;;;;;;;23.09;72.39;100615.47;5008927;28;102586;-58
2021/06/27 11:21:14;;;;;;;5.82;4.68;;;;;;;23.22;72.43;100619.75;5007735;28;102313;-60
2021/06/27 11:24:06;;;;;;;6.68;5.45;;;;;;;23.32;72.55;100617.59;5008469;28;102214;-57
2021/06/27 11:27:00;;;;;;;7.25;5.18;;;;;;;23.34;72.56;100623.59;5003981;28;103987;-58
2021/06/27 11:29:48;;;;;;;4.47;4.10;;;;;;;23.30;72.25;100622.69;5005434;28;102649;-58
2021/06/27 11:32:42;;;;;;;4.80;3.90;;;;;;;23.21;72.28;100618.13;5003203;28;102503;-58
2021/06/27 11:35:10;;;;;;;4.20;3.80;;;;;;;23.18;72.28;100616.06;5011507;28;102214;-58
2021/06/27 11:37:45;;;;;;;7.03;4.32;;;;;;;23.17;72.41;100625.56;5010361;28;103906;-58
2021/06/27 11:40:13;;;;;;;5.70;4.38;;;;;;;23.15;72.26;100625.13;5009643;28;102608;-58
2021/06/27 11:42:49;;;;;;;5.40;4.72;;;;;;;23.12;72.59;100623.06;5011546;28;102728;-58
2021/06/27 11:45:49;;;;;;;5.07;4.57;;;;;;;23.09;72.37;100626.56;5011012;28;102800;-58
2021/06/27 11:48:17;;;;;;;5.47;4.90;;;;;;;23.09;72.37;100609.91;4946008;28;104023;-58
2021/06/27 11:50:52;;;;;;;8.52;4.93;;;;;;;23.10;72.54;100622.59;4946413;28;102504;-58
2021/06/27 11:53:24;;;;;;;5.65;5.03;;;;;;;23.09;72.47;100617.44;4973512;28;102097;-59
2021/06/27 11:56:05;;;;;;;5.90;5.30;;;;;;;23.10;72.41;100621.81;5010357;28;102610;-58
2021/06/27 11:58:32;;;;;;;5.47;5.00;;;;;;;23.11;72.38;100624.22;5009325;28;103988;-57
2021/06/27 12:01:05;;;;;;;5.55;5.05;;;;;;;23.14;72.30;100628.25;5010751;28;102260;-56
2021/06/27 12:03:32;;;;;;;5.93;5.32;;;;;;;23.10;72.23;100617.06;5009076;28;102431;-57
2021/06/27 12:06:02;;;;;;;6.57;5.20;;;;;;;23.09;72.24;100621.00;5009048;28;102841;-57
2021/06/27 12:08:31;;;;;;;6.22;5.45;;;;;;;23.09;72.44;100629.34;5006944;28;102808;-56
2021/06/27 12:11:00;;;;;;;5.72;5.13;;;;;;;23.08;nan;100624.97;5009615;28;102547;-56
2021/06/27 12:13:28;;;;;;;5.90;5.30;;;;;;;23.09;72.30;100632.13;5009727;28;103109;-56
2021/06/27 12:15:57;;;;;;;5.95;5.47;;;;;;;23.10;72.25;100632.91;5010085;28;102312;-56
2021/06/27 12:18:25;;;;;;;5.90;5.40;;;;;;;23.09;72.30;100629.34;5008942;28;103934;-57
2021/06/27 12:20:54;;;;;;;5.95;5.50;;;;;;;23.10;72.05;100635.69;5005629;28;102540;-56
2021/06/27 12:23:28;;;;;;;6.13;5.38;;;;;;;23.11;72.19;100631.75;5008892;28;102285;-57
2021/06/27 12:26:00;;;;;;;5.93;5.32;;;;;;;23.11;72.32;100615.88;5009101;28;102450;-57
2021/06/27 12:28:32;;;;;;;6.43;5.93;;;;;;;23.10;72.38;100622.59;5007430;28;102851;-57
2021/06/27 12:31:00;;;;;;;5.75;5.25;;;;;;;23.11;72.42;100628.97;5008481;28;102374;-57
2021/06/27 12:33:28;;;;;;;5.97;5.38;;;;;;;23.11;72.04;100629.75;5009156;28;102463;-56
2021/06/27 12:35:58;;;;;;;5.93;5.47;;;;;;;23.10;72.19;100622.59;5002903;28;102504;-56
2021/06/27 12:38:25;;;;;;;6.57;5.78;;;;;;;23.09;72.30;100623.78;5008267;28;103287;-56
2021/06/27 12:40:54;;;;;;;6.22;5.70;;;;;;;23.10;72.42;100624.59;5011928;28;102826;-57
2021/06/27 12:43:28;;;;;;;6.38;5.85;;;;;;;23.09;72.23;100637.66;5009284;28;102584;-56
2021/06/27 12:46:22;;;;;;;6.25;5.65;;;;;;;23.08;72.50;100630.50;5009986;28;102505;-57
2021/06/27 12:49:04;;;;;;;5.90;5.40;;;;;;;23.08;72.49;100629.69;5004684;28;104032;-56
2021/06/27 12:51:33;;;;;;;6.40;5.80;;;;;;;23.06;72.45;100627.28;5008688;28;102015;-57
2021/06/27 12:54:09;;;;;;;6.47;5.82;;;;;;;23.06;72.52;100638.38;5008797;28;102167;-58
2021/06/27 12:56:47;;;;;;;6.35;5.85;;;;;;;23.06;72.33;100638.38;5008343;28;102844;-56
2021/06/27 12:59:16;;;;;;;6.93;6.00;;;;;;;23.05;72.49;100635.97;5019451;27;103867;-56
2021/06/27 13:01:59;;;;;;;;;;;;;;;23.04;72.50;100632.38;5008168;28;102702;-56
2021/06/27 13:04:27;;;;;;;6.38;5.85;;;;;;;23.04;72.36;100626.81;5010548;28;103416;-56
2021/06/27 13:06:55;;;;;;;;;;;;;;;23.03;72.64;100633.53;5013233;28;102563;-57
2021/06/27 13:09:21;;;;;;;6.72;6.03;;;;;;;23.05;72.54;100636.78;5031743;27;104188;-56
2021/06/27 13:12:12;;;;;;;7.72;6.38;;;;;;;23.03;72.25;100637.13;5008712;28;102550;-57
2021/06/27 13:14:43;;;;;;;7.82;6.55;;;;;;;23.03;72.41;100630.75;5006180;28;102770;-57
2021/06/27 13:17:11;;;;;;;7.53;6.40;;;;;;;23.02;72.30;100629.16;5013901;27;102264;-56
2021/06/27 13:19:38;;;;;;;6.65;5.80;;;;;;;23.03;72.34;100633.53;5006837;28;103686;-57
2021/06/27 13:22:09;;;;;;;7.07;6.45;;;;;;;23.03;72.32;100633.53;5007407;28;102627;-57
2021/06/27 13:24:55;;;;;;;7.28;6.68;;;;;;;23.08;71.97;100640.78;5003624;28;102709;-58
2021/06/27 13:27:22;;;;;;;7.43;6.32;;;;;;;23.06;72.14;100643.13;4997073;28;107146;-58
2021/06/27 13:30:04;;;;;;;7.25;6.63;;;;;;;23.03;72.54;100628.78;4995838;28;104055;-58
2021/06/27 13:32:30;;;;;;;7.65;6.95;;;;;;;23.03;72.47;100639.09;4996362;28;103478;-58
2021/06/27 13:34:57;;;;;;;7.70;6.90;;;;;;;23.02;72.43;100637.47;4995729;28;103332;-58
2021/06/27 13:37:23;;;;;;;7.55;6.85;;;;;;;23.00;72.41;100635.03;4997268;28;102378;-58
2021/06/27 13:39:50;;;;;;;7.55;6.85;;;;;;;23.00;72.58;100634.25;4996100;28;103825;-58
2021/06/27 13:42:17;;;;;;;8.25;7.53;;;;;;;23.00;72.43;100634.25;4996202;28;103166;-58
2021/06/27 13:44:55;;;;;;;7.85;7.15;;;;;;;22.99;72.58;100638.19;4995975;28;103293;-57
2021/06/27 13:47:23;;;;;;;7.53;6.88;;;;;;;22.99;72.61;100638.19;4996915;28;103490;-58
2021/06/27 13:49:51;;;;;;;8.05;7.35;;;;;;;22.99;72.55;100639.00;4995403;28;103906;-57
2021/06/27 13:52:17;;;;;;;8.07;7.05;;;;;;;22.99;72.44;100638.19;4995809;28;103580;-58
2021/06/27 13:54:44;;;;;;;8.73;7.32;;;;;;;22.97;72.57;100624.69;4995718;28;103348;-57
2021/06/27 13:57:10;;;;;;;7.80;7.03;;;;;;;22.98;72.58;100631.03;4997274;28;105215;-58
2021/06/27 13:59:36;;;;;;;8.40;7.70;;;;;;;23.00;72.40;100634.25;4996376;28;103848;-57
2021/06/27 14:02:03;;;;;;;8.05;7.35;;;;;;;23.00;72.38;100637.03;4994428;28;103313;-57
2021/06/27 14:04:32;;;;;;;7.78;6.97;;;;;;;23.00;72.50;100634.25;4994017;28;102552;-58
2021/06/27 14:06:58;;;;;;;7.57;6.88;;;;;;;23.00;72.37;100634.25;4998020;28;102899;-58
2021/06/27 14:09:25;;;;;;;8.10;7.35;;;;;;;22.98;72.65;100636.59;4995702;28;103892;-57
2021/06/27 14:11:51;;;;;;;7.50;6.80;;;;;;;22.99;72.44;100629.88;4996864;28;103810;-57
2021/06/27 14:14:18;;;;;;;8.38;7.22;;;;;;;23.01;72.14;100641.44;4997009;28;102735;-57
2021/06/27 14:16:54;;;;;;;8.30;7.25;;;;;;;22.99;72.48;100636.22;4999870;28;103263;-57
2021/06/27 14:19:20;;;;;;;7.90;7.15;;;;;;;23.01;72.09;100642.22;5012716;28;103929;-57
2021/06/27 14:21:50;;;;;;;10.10;7.55;;;;;;;23.00;72.18;100635.03;4994467;28;103092;-57
2021/06/27 14:24:17;;;;;;;9.23;7.68;;;;;;;22.98;72.53;100629.06;4998472;28;103457;-57
2021/06/27 14:26:44;;;;;;;8.48;7.78;;;;;;;22.99;72.20;100632.63;5001478;28;102266;-57
2021/06/27 14:29:10;;;;;;;8.43;7.60;;;;;;;22.98;72.30;100637.38;4997393;28;105087;-57
2021/06/27 14:31:37;;;;;;;10.30;8.07;;;;;;;22.99;72.03;100636.22;5001045;28;103122;-57
2021/06/27 14:34:03;;;;;;;8.00;7.28;;;;;;;22.97;72.18;100638.56;5000753;28;103244;-57
2021/06/27 14:36:30;;;;;;;8.88;7.35;;;;;;;22.97;72.37;100641.34;5001427;28;102541;-57
2021/06/27 14:38:58;;;;;;;8.10;7.40;;;;;;;22.97;72.38;100641.34;4998649;28;104289;-57
2021/06/27 14:41:28;;;;;;;8.33;7.40;;;;;;;22.96;72.32;100633.34;4997468;28;102739;-57
2021/06/27 14:43:56;;;;;;;8.80;8.00;;;;;;;22.96;72.33;100638.91;5001058;28;102532;-57
2021/06/27 14:46:23;;;;;;;8.38;7.55;;;;;;;22.94;72.11;100641.25;4999794;28;103217;-58
2021/06/27 14:48:50;;;;;;;9.45;7.88;;;;;;;22.95;72.39;100634.53;4999498;28;104199;-58
2021/06/27 14:51:17;;;;;;;8.43;7.63;;;;;;;22.95;72.36;100649.19;5001429;28;103114;-57
2021/06/27 14:53:44;;;;;;;8.23;7.53;;;;;;;22.95;72.18;100645.63;5003184;28;103274;-57
2021/06/27 14:56:13;;;;;;;9.18;8.20;;;;;;;22.94;72.43;100644.03;5003830;28;103416;-58
2021/06/27 14:58:41;;;;;;;8.30;7.55;;;;;;;22.94;72.40;100647.59;5001713;28;103037;-58
2021/06/27 15:01:08;;;;;;;9.07;8.18;;;;;;;22.95;72.32;100637.28;5001712;28;102961;-58
2021/06/27 15:03:36;;;;;;;8.85;8.05;;;;;;;22.94;72.40;100647.59;5002380;28;103245;-57
2021/06/27 15:06:04;;;;;;;8.43;7.72;;;;;;;22.95;72.34;100642.84;5019575;28;103112;-58
2021/06/27 15:08:31;;;;;;;8.27;7.47;;;;;;;22.94;72.31;100641.25;5003906;28;104039;-58
2021/06/27 15:10:57;;;;;;;8.20;7.50;;;;;;;22.93;72.15;100634.06;5002890;28;104940;-57
2021/06/27 15:13:26;;;;;;;8.25;7.57;;;;;;;22.92;72.36;100647.13;5002445;28;102514;-58
2021/06/27 15:15:53;;;;;;;8.85;7.95;;;;;;;22.92;72.41;100649.09;5004200;28;103383;-58
2021/06/27 15:18:20;;;;;;;8.85;8.05;;;;;;;22.93;72.20;100642.38;5002308;28;103837;-59
2021/06/27 15:20:46;;;;;;;8.60;7.78;;;;;;;22.93;72.08;100642.38;5009901;28;102386;-58
2021/06/27 15:23:14;;;;;;;8.20;7.55;;;;;;;22.92;72.36;100644.34;5001423;28;103257;-58
2021/06/27 15:25:40;;;;;;;9.55;8.63;;;;;;;22.91;72.40;100653.81;5016265;28;103315;-58
2021/06/27 15:28:07;;;;;;;10.38;9.23;;;;;;;22.89;72.33;100656.13;5003162;28;104091;-58
2021/06/27 15:30:35;;;;;;;9.70;8.70;;;;;;;22.93;72.37;100650.72;5003444;28;103160;-59
2021/06/27 15:33:01;;;;;;;9.95;8.70;;;;;;;22.92;72.27;100654.66;5002967;28;102412;-58
2021/06/27 15:35:29;;;;;;;10.43;9.32;;;;;;;22.91;72.28;100661.34;5003429;28;103238;-58
2021/06/27 15:37:56;;;;;;;10.05;9.15;;;;;;;22.91;72.28;100653.03;5002795;28;104060;-58
2021/06/27 15:40:23;;;;;;;10.07;9.07;;;;;;;22.92;72.22;100657.44;5003330;28;102203;-58
2021/06/27 15:42:49;;;;;;;10.02;9.13;;;;;;;22.92;72.23;100663.78;5003633;28;103121;-58
2021/06/27 15:45:16;;;;;;;10.23;9.32;;;;;;;22.91;72.10;100661.34;5004659;28;102615;-58
2021/06/27 15:47:44;;;;;;;10.05;9.15;;;;;;;22.92;72.17;100676.84;5001815;28;104006;-57
2021/06/27 15:50:12;;;;;;;10.43;9.43;;;;;;;22.89;72.34;100666.44;5002852;28;102850;-58
2021/06/27 15:52:40;;;;;;;10.63;9.55;;;;;;;22.90;nan;100668.03;5003129;28;103067;-57
2021/06/27 15:55:07;;;;;;;11.30;9.88;;;;;;;22.89;72.24;100670.00;5014152;28;103408;-58
2021/06/27 15:57:34;;;;;;;10.57;9.52;;;;;;;22.91;72.44;100669.69;5020567;28;104145;-58
2021/06/27 16:00:00;;;;;;;9.55;8.75;;;;;;;22.89;72.38;100671.97;5010516;28;102377;-58
2021/06/27 16:02:27;;;;;;;9.95;9.00;;;;;;;22.90;72.24;100671.66;5014406;28;102727;-58
2021/06/27 16:04:55;;;;;;;10.00;9.10;;;;;;;22.89;72.45;100671.97;5007510;28;102378;-58
2021/06/27 16:07:21;;;;;;;9.80;8.80;;;;;;;22.89;72.35;100683.88;5009169;28;103947;-58
2021/06/27 16:09:48;;;;;;;9.40;8.60;;;;;;;22.88;72.36;100681.47;5014072;28;102214;-58
2021/06/27 16:12:15;;;;;;;10.10;9.10;;;;;;;22.89;72.15;100678.34;5008400;28;102330;-58
2021/06/27 16:14:42;;;;;;;10.32;9.25;;;;;;;22.89;72.21;100677.53;5010947;28;102301;-58
2021/06/27 16:17:09;;;;;;;9.93;9.13;;;;;;;22.88;72.26;100687.03;5007772;28;103731;-57
2021/06/27 16:19:37;;;;;;;12.75;9.18;;;;;;;22.88;72.33;100678.72;5010030;28;102135;-58
2021/06/27 16:22:05;;;;;;;9.98;9.07;;;;;;;22.86;72.40;100678.25;5009732;28;102505;-58
2021/06/27 16:24:32;;;;;;;9.95;9.00;;;;;;;22.88;72.52;100675.94;5010767;28;102769;-57
2021/06/27 16:27:01;;;;;;;10.15;8.57;;;;;;;22.88;71.94;100682.28;5009851;28;102298;-59
2021/06/27 16:29:27;;;;;;;9.63;8.73;;;;;;;22.90;72.21;100679.97;5008622;28;102561;-59
2021/06/27 16:31:56;;;;;;;9.70;8.85;;;;;;;22.87;72.32;100677.09;5001873;28;102330;-59
2021/06/27 16:34:23;;;;;;;9.10;8.38;;;;;;;22.88;72.32;100687.84;5009593;28;102751;-58
2021/06/27 16:37:09;;;;;;;10.13;8.52;;;;;;;22.87;72.55;100680.69;5008256;28;103911;-59
2021/06/27 16:39:36;;;;;;;9.23;8.45;;;;;;;22.86;72.57;100687.38;5008646;28;102348;-58
2021/06/27 16:42:04;;;;;;;9.60;8.80;;;;;;;22.86;72.57;100684.59;5007552;28;103486;-59
2021/06/27 16:44:32;;;;;;;9.30;8.40;;;;;;;22.86;72.39;100692.13;5003284;28;103581;-59
2021/06/27 16:46:59;;;;;;;9.27;8.48;;;;;;;22.86;72.19;100689.34;5003706;28;104130;-59
2021/06/27 16:49:25;;;;;;;10.68;9.68;;;;;;;22.85;72.47;100693.28;5007222;28;102537;-58
2021/06/27 16:51:52;;;;;;;9.02;8.23;;;;;;;22.85;72.28;100698.84;5008273;28;102431;-59
2021/06/27 16:54:20;;;;;;;10.10;9.20;;;;;;;22.85;72.25;100693.28;5009526;28;102137;-59
2021/06/27 16:56:47;;;;;;;9.57;8.67;;;;;;;22.86;72.50;100695.69;5006934;28;103467;-59
2021/06/27 16:59:14;;;;;;;10.13;9.10;;;;;;;22.85;72.52;100701.59;5008063;28;102035;-59
2021/06/27 17:01:41;;;;;;;10.52;9.52;;;;;;;22.83;72.65;100717.78;5020497;27;102114;-59
2021/06/27 17:04:08;;;;;;;10.00;9.13;;;;;;;22.84;72.51;100708.31;5003060;28;102441;-58
2021/06/27 17:06:34;;;;;;;9.90;9.00;;;;;;;22.84;72.39;100714.69;5006863;28;104059;-59
2021/06/27 17:09:06;;;;;;;9.63;8.77;;;;;;;22.84;72.50;100708.31;5004604;28;102796;-59
2021/06/27 17:11:34;;;;;;;9.65;8.75;;;;;;;22.82;72.46;100711.44;5006617;28;102356;-58
2021/06/27 17:14:01;;;;;;;21.00;10.63;;;;;;;22.83;72.62;100718.63;5007298;28;102893;-59
2021/06/27 17:16:27;;;;;;;9.32;8.50;;;;;;;22.82;72.33;100711.44;5007643;28;103178;-59
2021/06/27 17:18:55;;;;;;;9.77;8.35;;;;;;;22.82;72.37;100711.44;5007820;28;102809;-59
2021/06/27 17:21:23;;;;;;;9.57;8.30;;;;;;;22.83;72.35;100706.69;5004624;28;102701;-59
2021/06/27 17:23:54;;;;;;;10.38;9.18;;;;;;;22.83;72.41;100715.84;5009231;28;103532;-58
2021/06/27 17:26:21;;;;;;;9.52;8.60;;;;;;;22.82;72.52;100718.97;5004159;28;103921;-58
2021/06/27 17:28:50;;;;;;;9.75;8.45;;;;;;;22.82;72.48;100724.50;5008578;28;102684;-58
2021/06/27 17:31:17;;;;;;;8.65;7.85;;;;;;;22.82;72.53;100724.50;5003152;28;103537;-59
2021/06/27 17:33:45;;;;;;;9.63;8.73;;;;;;;22.82;72.38;100732.84;5007905;28;102779;-59
2021/06/27 17:36:12;;;;;;;9.35;8.15;;;;;;;22.82;72.43;100735.59;5003325;28;103893;-59
2021/06/27 17:38:38;;;;;;;9.32;8.52;;;;;;;22.82;72.43;100738.38;5008887;28;101960;-60
2021/06/27 17:41:05;;;;;;;8.55;7.78;;;;;;;22.82;72.53;100738.38;5008868;28;102388;-59
2021/06/27 17:43:32;;;;;;;11.48;8.27;;;;;;;22.81;72.40;100742.31;5006330;28;102603;-59
2021/06/27 17:46:00;;;;;;;22.48;10.35;;;;;;;22.79;72.17;100737.94;5004591;28;104013;-59
2021/06/27 17:48:27;;;;;;;8.37;7.73;;;;;;;22.78;72.64;100741.84;5005326;28;102664;-58
2021/06/27 17:50:54;;;;;;;9.43;8.63;;;;;;;22.80;72.39;100741.53;5004564;28;102722;-59
2021/06/27 17:53:21;;;;;;;9.07;8.38;;;;;;;22.81;72.39;100747.88;5007548;28;102464;-58
2021/06/27 17:55:49;;;;;;;9.55;8.68;;;;;;;22.79;72.28;100746.28;5003344;28;103775;-59
2021/06/27 17:58:16;;;;;;;8.93;8.18;;;;;;;22.77;72.53;100751.34;5004053;28;102427;-59